Time;durP1;ratioP1;P1;durP2;ratioP2;P2;SDS_P1;SDS_P2;PMS_P1;PMS_P2;Temp;Humidity;BMP_temperature;BMP_pressure;BME280_temperature;BME280_humidity;BME280_pressure;Samples;Min_cycle;Max_cycle;Signal;HPM_P1;HPM_P2
2023/03/14 00:00:00;;;;;;;5.10;2.00;;;;;;;1.79;53.73;100096.77;82115;1295;3012632;-61
2023/03/14 00:02:27;;;;;;;6.70;2.30;;;;;;;1.77;53.47;100088.16;82073;1294;3011417;-61
2023/03/14 00:04:56;;;;;;;8.70;2.20;;;;;;;1.79;53.24;100090.73;80830;1294;3025729;-62
2023/03/14 00:07:24;;;;;;;8.10;2.50;;;;;;;1.67;53.41;100081.73;82123;1294;3012622;-60
2023/03/14 00:09:53;;;;;;;5.40;2.60;;;;;;;1.70;53.59;100076.34;80840;1298;3053104;-63
2023/03/14 00:12:20;;;;;;;5.20;2.40;;;;;;;1.63;53.53;100072.66;82112;1295;3012719;-61
2023/03/14 00:14:46;;;;;;;6.10;2.30;;;;;;;1.70;53.65;100074.46;82094;1295;3011225;-61
2023/03/14 00:17:14;;;;;;;5.40;1.80;;;;;;;1.73;53.08;100074.92;80817;1296;3026701;-63
2023/03/14 00:19:42;;;;;;;4.70;2.20;;;;;;;1.71;53.31;100074.78;82096;1295;3011263;-63
2023/03/14 00:22:09;;;;;;;6.10;2.40;;;;;;;1.66;53.16;100069.14;82096;1295;3010963;-61
2023/03/14 00:24:38;;;;;;;5.10;2.20;;;;;;;1.53;53.18;100069.70;80843;1294;3050623;-61
2023/03/14 00:27:04;;;;;;;6.20;3.00;;;;;;;1.50;52.87;100075.77;82096;1294;3012572;-60
2023/03/14 00:29:32;;;;;;;6.50;2.90;;;;;;;1.42;53.08;100073.80;82096;1294;3011469;-61
2023/03/14 00:32:01;;;;;;;6.50;2.60;;;;;;;1.47;52.95;100066.83;80816;1294;3057371;-62
2023/03/14 00:34:31;;;;;;;7.10;2.40;;;;;;;1.48;52.31;100065.60;82108;1294;3018352;-61
2023/03/14 00:37:00;;;;;;;4.60;2.30;;;;;;;1.49;52.81;100066.98;81477;1295;3011223;-62
2023/03/14 00:39:26;;;;;;;6.20;2.30;;;;;;;1.45;52.55;100067.37;82097;1294;3012666;-60
2023/03/14 00:41:53;;;;;;;5.20;2.30;;;;;;;1.48;52.22;100067.67;82065;1294;3011430;-61
2023/03/14 00:44:21;;;;;;;3.60;1.60;;;;;;;1.46;52.39;100064.09;80806;1294;3026344;-60
2023/03/14 00:46:47;;;;;;;2.90;1.50;;;;;;;1.39;52.38;100063.82;82107;1294;3013022;-61
2023/03/14 00:50:48;;;;;;;4.20;1.70;;;;;;;1.40;52.20;100061.23;80053;1299;3012903;-60
2023/03/14 00:53:19;;;;;;;2.90;1.80;;;;;;;1.45;52.32;100063.23;78840;1301;3011894;-62
2023/03/14 00:55:46;;;;;;;5.90;1.70;;;;;;;1.49;52.05;100063.52;77736;1302;3026522;-62
2023/03/14 00:58:14;;;;;;;4.60;2.20;;;;;;;1.38;51.94;100070.40;79003;1304;3013314;-60
2023/03/14 01:00:41;;;;;;;6.00;2.30;;;;;;;1.34;52.35;100064.76;78970;1307;3011759;-62
2023/03/14 01:03:09;;;;;;;5.60;1.80;;;;;;;1.34;52.40;100065.61;75503;1305;3049847;-62
2023/03/14 01:05:44;;;;;;;3.40;1.60;;;;;;;1.39;52.14;100070.91;78157;1300;3049220;-61
2023/03/14 01:08:11;;;;;;;5.00;1.80;;;;;;;1.33;52.31;100074.62;79377;1300;3013131;-61
2023/03/14 01:10:39;;;;;;;5.30;2.00;;;;;;;1.29;52.26;100075.88;79404;1298;3011953;-60
2023/03/14 01:13:08;;;;;;;3.10;1.60;;;;;;;1.32;52.00;100070.14;78092;1301;3051721;-60
2023/03/14 01:15:36;;;;;;;3.40;1.90;;;;;;;1.25;52.41;100071.44;79450;1295;3013977;-62
2023/03/14 01:18:03;;;;;;;2.90;1.30;;;;;;;1.25;51.92;100076.09;79351;1295;3013244;-60
2023/03/14 01:20:31;;;;;;;4.20;1.60;;;;;;;1.25;51.96;100080.43;78098;1295;3050388;-60
2023/03/14 01:22:58;;;;;;;4.50;1.50;;;;;;;1.25;52.14;100084.73;79411;1295;3013858;-63
2023/03/14 01:25:26;;;;;;;6.80;1.70;;;;;;;1.24;52.14;100083.36;79300;1295;3011815;-62
2023/03/14 01:27:55;;;;;;;3.80;1.90;;;;;;;1.20;52.27;100075.65;78169;1300;3051751;-62
2023/03/14 01:30:22;;;;;;;3.40;1.60;;;;;;;1.14;52.57;100077.27;79351;1301;3012732;-62
2023/03/14 01:32:48;;;;;;;2.50;1.50;;;;;;;1.11;52.50;100083.87;79355;1299;3011665;-61
2023/03/14 01:35:17;;;;;;;4.70;1.90;;;;;;;1.15;52.37;100081.39;77986;1300;3026707;-60
2023/03/14 01:37:43;;;;;;;7.00;2.00;;;;;;;1.18;52.78;100079.81;79254;1298;3013285;-60
2023/03/14 01:40:16;;;;;;;6.30;2.00;;;;;;;1.21;52.44;100074.08;78155;1298;3052747;-62
2023/03/14 01:42:55;;;;;;;5.60;1.50;;;;;;;1.17;52.87;100073.78;79337;1299;3013546;-61
2023/03/14 01:46:05;;;;;;;5.80;1.90;;;;;;;1.19;52.80;100072.21;77989;1295;3050512;-63
2023/03/14 01:48:57;;;;;;;3.70;1.50;;;;;;;1.11;52.73;100073.67;78105;1300;3059173;-61
2023/03/14 01:52:05;;;;;;;5.80;2.20;;;;;;;1.13;53.13;100075.39;78236;1295;3050066;-61
2023/03/14 01:54:44;;;;;;;4.00;1.60;;;;;;;0.96;53.55;100077.64;78137;1295;3056204;-62
2023/03/14 01:57:24;;;;;;;3.60;1.60;;;;;;;0.97;53.35;100072.81;78041;1301;3050014;-60
2023/03/14 02:00:11;;;;;;;6.40;2.10;;;;;;;0.97;53.57;100078.50;78193;1301;3053132;-60
2023/03/14 02:02:45;;;;;;;4.80;1.60;;;;;;;0.92;53.76;100072.35;78019;1295;3053213;-61
2023/03/14 02:05:22;;;;;;;4.50;1.60;;;;;;;0.90;53.84;100078.93;79270;1295;3011930;-62
2023/03/14 02:08:10;;;;;;;4.20;1.90;;;;;;;0.76;54.41;100073.39;77940;1300;3051222;-64
2023/03/14 02:11:09;;;;;;;5.70;1.90;;;;;;;0.76;54.54;100072.52;77981;1300;3057319;-62
2023/03/14 02:13:50;;;;;;;4.60;1.40;;;;;;;0.77;54.60;100074.42;78032;1300;3050910;-61
2023/03/14 02:16:35;;;;;;;3.70;1.70;;;;;;;0.82;54.39;100074.70;78056;1301;3053077;-60
2023/03/14 02:19:13;;;;;;;3.70;1.80;;;;;;;0.78;54.46;100073.71;78072;1300;3050382;-61
2023/03/14 02:22:08;;;;;;;2.90;1.40;;;;;;;0.70;55.00;100074.82;77951;1300;3052034;-59
2023/03/14 02:25:09;;;;;;;5.00;2.00;;;;;;;0.60;55.42;100072.52;77987;1295;3052569;-61
2023/03/14 02:27:42;;;;;;;4.40;1.50;;;;;;;0.62;55.35;100070.77;77988;1295;3068825;-60
2023/03/14 02:30:35;;;;;;;5.10;1.80;;;;;;;0.54;55.65;100070.85;79103;1304;3018809;-60
2023/03/14 02:33:09;;;;;;;2.50;1.40;;;;;;;0.47;55.93;100075.92;77938;1301;3051296;-61
2023/03/14 02:35:38;;;;;;;5.50;1.80;;;;;;;0.50;55.96;100076.05;79231;1295;3011939;-63
2023/03/14 02:38:14;;;;;;;3.40;2.10;;;;;;;0.41;56.05;100071.49;78031;1300;3050333;-60
2023/03/14 02:40:44;;;;;;;4.00;1.60;;;;;;;0.41;55.82;100069.77;78008;1295;3053482;-61
2023/03/14 02:43:11;;;;;;;4.60;2.10;;;;;;;0.39;55.98;100072.54;79364;1300;3012993;-60
2023/03/14 02:45:50;;;;;;;4.90;1.80;;;;;;;0.33;56.24;100072.42;78028;1299;3051617;-60
2023/03/14 02:48:30;;;;;;;3.80;2.00;;;;;;;0.37;56.21;100075.15;78667;1295;3011676;-61
2023/03/14 02:50:59;;;;;;;4.70;2.00;;;;;;;0.33;55.94;100073.13;77999;1295;3057428;-61
2023/03/14 02:53:29;;;;;;;4.10;1.90;;;;;;;0.24;56.15;100076.99;79326;1298;3011886;-60
2023/03/14 02:55:58;;;;;;;7.70;2.10;;;;;;;0.21;56.34;100075.80;78081;1301;3052923;-62
2023/03/14 02:58:27;;;;;;;7.40;1.90;;;;;;;0.27;56.29;100074.90;79282;1300;3013522;-60
2023/03/14 03:01:00;;;;;;;4.50;2.10;;;;;;;0.20;56.58;100074.44;78124;1300;3051943;-61
2023/03/14 03:03:32;;;;;;;4.40;1.70;;;;;;;0.21;56.52;100075.64;79287;1295;3011736;-60
2023/03/14 03:05:59;;;;;;;5.60;2.20;;;;;;;0.20;56.43;100081.67;78028;1301;3053177;-60
2023/03/14 03:08:26;;;;;;;9.10;2.60;;;;;;;0.10;56.96;100083.83;79205;1296;3014069;-63
2023/03/14 03:10:54;;;;;;;3.90;2.20;;;;;;;0.04;56.87;100090.59;79240;1295;3012499;-59
2023/03/14 03:13:22;;;;;;;3.60;1.80;;;;;;;0.09;56.77;100092.61;78047;1300;3050298;-60
2023/03/14 03:15:51;;;;;;;4.40;2.30;;;;;;;0.07;56.87;100097.10;79208;1295;3011642;-62
2023/03/14 03:18:21;;;;;;;7.10;2.30;;;;;;;-0.02;56.95;100097.85;78359;1298;3051954;-61
2023/03/14 03:20:48;;;;;;;5.60;2.30;;;;;;;0.02;56.45;100100.95;79465;1298;3013181;-61
2023/03/14 03:23:16;;;;;;;3.80;1.70;;;;;;;0.01;56.61;100101.46;79331;1295;3011667;-61
2023/03/14 03:25:51;;;;;;;2.50;1.50;;;;;;;0.11;56.07;100100.69;78022;1298;3050662;-60
2023/03/14 03:28:20;;;;;;;4.00;1.90;;;;;;;0.06;56.10;100101.94;78747;1296;3011589;-60
2023/03/14 03:30:47;;;;;;;4.70;1.70;;;;;;;-0.04;55.91;100099.77;79310;1296;3013124;-60
2023/03/14 03:33:15;;;;;;;5.20;2.20;;;;;;;0.04;55.88;100103.50;79190;1296;3011587;-60
2023/03/14 03:35:46;;;;;;;4.10;1.60;;;;;;;0.11;55.42;100103.63;78067;1295;3054623;-60
2023/03/14 03:38:14;;;;;;;3.70;1.60;;;;;;;0.10;55.10;100103.11;79341;1298;3013010;-61
2023/03/14 03:40:43;;;;;;;3.20;1.90;;;;;;;0.14;55.03;100103.26;78128;1301;3025760;-61
2023/03/14 03:43:12;;;;;;;4.70;1.80;;;;;;;0.16;55.20;100102.55;79352;1295;3013207;-62
2023/03/14 03:45:42;;;;;;;4.50;2.00;;;;;;;0.17;55.22;100099.28;78752;1295;3011790;-61
2023/03/14 03:48:10;;;;;;;5.80;1.60;;;;;;;0.17;54.77;100102.88;79390;1295;3011816;-60
2023/03/14 03:50:44;;;;;;;3.00;1.70;;;;;;;0.21;54.75;100100.45;79312;1301;3012021;-61
2023/03/14 03:53:14;;;;;;;5.40;2.00;;;;;;;0.28;54.54;100095.91;78012;1299;3053041;-61
2023/03/14 03:55:42;;;;;;;3.90;2.00;;;;;;;0.29;54.61;100096.94;79301;1295;3013167;-61
2023/03/14 03:58:09;;;;;;;5.30;2.10;;;;;;;0.31;54.47;100099.16;79261;1295;3011843;-61
2023/03/14 04:00:38;;;;;;;4.10;1.90;;;;;;;0.37;54.26;100095.15;78074;1300;3049366;-60
2023/03/14 04:03:05;;;;;;;5.90;2.20;;;;;;;0.25;54.61;100091.10;79393;1295;3014883;-61
2023/03/14 04:05:38;;;;;;;5.50;2.20;;;;;;;0.28;54.86;100094.52;78091;1298;3052712;-60
2023/03/14 04:08:08;;;;;;;5.30;2.20;;;;;;;0.33;54.37;100094.15;79336;1301;3011947;-59
2023/03/14 04:10:36;;;;;;;4.50;2.20;;;;;;;0.34;54.22;100094.48;78100;1301;3028502;-60
2023/03/14 04:13:15;;;;;;;4.70;2.30;;;;;;;0.37;54.13;100087.92;78098;1295;3050990;-61
2023/03/14 04:15:48;;;;;;;6.20;2.20;;;;;;;0.31;54.49;100090.88;79345;1295;3013343;-60
2023/03/14 04:18:25;;;;;;;4.70;2.30;;;;;;;0.30;54.06;100094.86;78003;1300;3049312;-59
2023/03/14 04:20:53;;;;;;;9.10;2.00;;;;;;;0.29;54.00;100089.87;79328;1295;3014045;-60
2023/03/14 04:23:24;;;;;;;6.60;2.20;;;;;;;0.28;54.01;100089.02;78148;1300;3052204;-60
2023/03/14 04:25:51;;;;;;;9.00;2.40;;;;;;;0.36;54.13;100086.52;79412;1301;3016281;-61
2023/03/14 04:28:18;;;;;;;5.00;1.90;;;;;;;0.42;54.05;100086.48;79315;1295;3013026;-60
2023/03/14 04:30:47;;;;;;;2.90;1.70;;;;;;;0.35;53.88;100084.99;78086;1298;3056938;-59
2023/03/14 04:33:20;;;;;;;5.30;2.60;;;;;;;0.34;53.82;100079.67;79499;1295;3013400;-61
2023/03/14 04:35:54;;;;;;;6.20;2.00;;;;;;;0.30;54.17;100085.04;78200;1299;3053353;-62
2023/03/14 04:38:20;;;;;;;5.80;2.40;;;;;;;0.32;54.28;100086.74;79201;1300;3013494;-61
2023/03/14 04:40:51;;;;;;;5.90;2.50;;;;;;;0.39;53.86;100085.13;78667;1301;3011466;-63
2023/03/14 04:43:19;;;;;;;6.40;2.70;;;;;;;0.45;53.41;100085.59;79276;1297;3011674;-62
2023/03/14 04:45:56;;;;;;;8.10;2.70;;;;;;;0.45;53.78;100086.97;78072;1300;3070776;-60
2023/03/14 04:48:24;;;;;;;7.20;2.50;;;;;;;0.49;53.38;100082.11;79211;1296;3011606;-63
2023/03/14 04:50:54;;;;;;;11.40;2.40;;;;;;;0.57;52.85;100079.96;77988;1296;3056733;-62
2023/03/14 04:53:22;;;;;;;3.70;1.90;;;;;;;0.57;53.05;100083.23;79260;1295;3013614;-62
2023/03/14 04:55:53;;;;;;;9.70;2.40;;;;;;;0.63;52.69;100083.35;78151;1298;3026307;-60
2023/03/14 04:58:20;;;;;;;5.80;2.10;;;;;;;0.65;52.19;100085.91;79355;1295;3011655;-59
2023/03/14 05:00:50;;;;;;;6.00;2.50;;;;;;;0.68;51.94;100080.71;78199;1297;3026194;-60
2023/03/14 05:03:42;;;;;;;4.10;2.40;;;;;;;0.78;51.95;100083.02;78227;1301;3052524;-60
2023/03/14 05:06:28;;;;;;;7.10;2.30;;;;;;;0.81;51.82;100082.98;78026;1300;3071358;-61
2023/03/14 05:09:15;;;;;;;8.60;2.30;;;;;;;0.97;50.99;100082.30;78151;1295;3053345;-61
2023/03/14 05:12:04;;;;;;;3.90;1.80;;;;;;;1.14;50.68;100084.52;78127;1301;3057230;-62
2023/03/14 05:14:43;;;;;;;4.60;2.50;;;;;;;1.18;50.40;100084.80;78057;1301;3049389;-60
2023/03/14 05:17:41;;;;;;;4.30;2.00;;;;;;;1.27;49.99;100083.49;78135;1298;3054136;-62
2023/03/14 05:20:28;;;;;;;5.30;2.40;;;;;;;1.31;49.72;100086.04;78000;1301;3050903;-61
2023/03/14 05:23:16;;;;;;;4.10;2.10;;;;;;;1.33;49.59;100085.14;78053;1301;3053091;-62
2023/03/14 05:26:22;;;;;;;5.90;2.30;;;;;;;1.39;49.29;100088.34;77937;1301;3052574;-61
2023/03/14 05:29:07;;;;;;;4.40;1.90;;;;;;;1.43;49.41;100086.39;78197;1298;3070120;-62
2023/03/14 05:31:55;;;;;;;3.30;1.90;;;;;;;1.51;49.09;100092.67;78093;1295;3052949;-62
2023/03/14 05:34:42;;;;;;;7.60;1.80;;;;;;;1.63;48.74;100090.09;78313;1301;3058650;-61
2023/03/14 05:37:29;;;;;;;4.70;2.00;;;;;;;1.82;48.44;100092.08;78151;1300;3049231;-63
2023/03/14 05:40:20;;;;;;;5.50;1.90;;;;;;;1.86;48.23;100095.80;78043;1296;3054900;-60
2023/03/14 05:43:23;;;;;;;5.10;2.10;;;;;;;1.99;48.26;100093.20;77826;1300;3050624;-61
2023/03/14 05:46:22;;;;;;;9.80;2.00;;;;;;;2.10;48.09;100095.45;78083;1300;3053796;-62
2023/03/14 05:49:00;;;;;;;6.70;2.00;;;;;;;2.17;47.93;100095.67;77959;1301;3052615;-62
2023/03/14 05:51:43;;;;;;;;;;;;;;;2.26;47.71;100099.85;78039;1298;3070755;-62
2023/03/14 05:54:29;;;;;;;4.50;2.20;;;;;;;2.31;47.62;100103.73;77918;1301;3052361;-61
2023/03/14 05:57:17;;;;;;;4.00;1.90;;;;;;;2.43;47.89;100107.18;77766;1301;3056747;-60
2023/03/14 05:59:59;;;;;;;4.20;2.10;;;;;;;2.47;47.71;100109.54;78017;1301;3049502;-61
2023/03/14 06:02:50;;;;;;;4.20;1.80;;;;;;;2.50;47.69;100103.09;78067;1298;3052248;-61
2023/03/14 06:05:22;;;;;;;;;;;;;;;2.56;47.48;100104.90;79267;1298;3011660;-61
2023/03/14 06:07:52;;;;;;;4.40;1.80;;;;;;;2.45;47.12;100103.17;78209;1300;3053919;-61
2023/03/14 06:10:19;;;;;;;7.30;2.10;;;;;;;2.54;47.57;100098.87;79362;1300;3021275;-60
2023/03/14 06:12:46;;;;;;;4.50;2.20;;;;;;;2.47;47.63;100098.83;79257;1296;3011540;-61
2023/03/14 06:15:15;;;;;;;6.40;2.30;;;;;;;2.50;47.85;100102.56;78012;1295;3056361;-60
2023/03/14 06:17:45;;;;;;;3.80;1.90;;;;;;;2.56;47.97;100105.77;79298;1300;3013234;-63
2023/03/14 06:20:14;;;;;;;5.10;1.90;;;;;;;2.62;48.45;100106.17;78079;1295;3053103;-60
2023/03/14 06:22:41;;;;;;;4.40;1.90;;;;;;;2.84;48.29;100111.14;79309;1301;3021065;-60
2023/03/14 06:25:19;;;;;;;4.90;2.20;;;;;;;2.94;47.90;100108.00;78009;1301;3052387;-62
2023/03/14 06:27:58;;;;;;;6.80;2.40;;;;;;;3.04;47.65;100107.11;78009;1301;3070613;-60
2023/03/14 06:30:25;;;;;;;3.80;1.70;;;;;;;3.07;47.77;100102.22;79246;1298;3014023;-61
2023/03/14 06:32:53;;;;;;;10.40;2.10;;;;;;;3.14;47.86;100104.51;79253;1297;3011738;-60
2023/03/14 06:35:25;;;;;;;8.20;2.50;;;;;;;3.14;48.37;100107.10;78284;1298;3052620;-61
2023/03/14 06:37:53;;;;;;;5.50;2.70;;;;;;;3.29;47.81;100104.73;79342;1301;3012982;-61
2023/03/14 06:40:20;;;;;;;4.90;2.20;;;;;;;3.36;47.58;100107.67;79266;1300;3011883;-61
2023/03/14 06:43:04;;;;;;;3.90;2.00;;;;;;;3.50;47.16;100105.31;78026;1300;3069367;-60
2023/03/14 06:45:31;;;;;;;5.60;3.10;;;;;;;3.58;47.41;100109.46;79565;1295;3013124;-64
2023/03/14 06:47:59;;;;;;;5.70;2.50;;;;;;;3.72;47.09;100114.38;79399;1295;3011613;-61
2023/03/14 06:50:35;;;;;;;6.30;2.90;;;;;;;3.83;47.86;100103.73;79235;1308;3053543;-60
2023/03/14 06:53:04;;;;;;;6.00;2.50;;;;;;;3.96;47.51;100103.44;79498;1301;3013083;-59
2023/03/14 06:55:35;;;;;;;7.20;3.10;;;;;;;4.06;47.75;100106.50;78880;1298;3011953;-60
2023/03/14 06:58:02;;;;;;;4.80;2.30;;;;;;;4.24;47.40;100100.88;79551;1299;3012818;-61
2023/03/14 07:00:29;;;;;;;6.50;2.90;;;;;;;4.34;47.20;100096.98;79182;1301;3013000;-60
2023/03/14 07:02:57;;;;;;;7.30;3.10;;;;;;;4.40;46.78;100094.93;78604;1295;3057989;-65
2023/03/14 07:05:33;;;;;;;5.70;3.00;;;;;;;4.37;45.83;100094.46;78719;1295;3013516;-64
2023/03/14 07:08:00;;;;;;;7.50;2.80;;;;;;;4.44;46.47;100093.77;79741;1298;3012945;-65
2023/03/14 07:10:26;;;;;;;5.20;2.40;;;;;;;4.61;45.94;100097.33;79370;1298;3011627;-65
2023/03/14 07:12:54;;;;;;;5.00;2.70;;;;;;;4.70;44.84;100096.95;78120;1303;3051825;-67
2023/03/14 07:15:23;;;;;;;7.30;2.40;;;;;;;4.58;44.74;100105.57;79346;1300;3011762;-69
2023/03/14 07:17:53;;;;;;;5.50;2.50;;;;;;;4.62;44.70;100100.63;78071;1298;3069199;-65
2023/03/14 07:20:24;;;;;;;6.40;2.80;;;;;;;4.65;45.27;100099.31;79153;1301;3012929;-65
2023/03/14 07:22:54;;;;;;;4.90;2.20;;;;;;;4.76;45.46;100098.36;78025;1298;3026632;-63
2023/03/14 07:25:30;;;;;;;5.40;3.00;;;;;;;5.03;45.20;100098.48;77897;1300;3051088;-66
2023/03/14 07:27:58;;;;;;;6.00;2.30;;;;;;;4.96;45.50;100092.77;79209;1299;3013291;-65
2023/03/14 07:30:24;;;;;;;8.70;2.80;;;;;;;5.00;45.42;100095.08;79280;1298;3011605;-71
2023/03/14 07:32:53;;;;;;;8.00;2.60;;;;;;;5.11;45.29;100097.41;78147;1301;3051030;-66
2023/03/14 07:35:21;;;;;;;4.80;2.40;;;;;;;5.02;45.83;100093.45;79465;1297;3011753;-65
2023/03/14 07:37:48;;;;;;;8.00;2.30;;;;;;;5.15;45.69;100089.64;80138;1296;3011566;-64
2023/03/14 07:40:18;;;;;;;7.60;2.50;;;;;;;5.25;45.56;100086.40;78143;1298;3049843;-65
2023/03/14 07:42:44;;;;;;;8.80;2.90;;;;;;;5.37;44.86;100084.48;79424;1302;3012953;-64
2023/03/14 07:45:17;;;;;;;4.40;2.70;;;;;;;5.57;43.99;100080.95;78129;1306;3053193;-63
2023/03/14 07:47:44;;;;;;;4.50;2.40;;;;;;;5.68;44.31;100082.34;79945;1297;3013183;-63
2023/03/14 07:50:10;;;;;;;5.00;2.90;;;;;;;5.81;43.73;100084.55;79333;1301;3011675;-63
2023/03/14 07:52:40;;;;;;;4.90;2.60;;;;;;;5.94;43.35;100077.23;78100;1297;3057565;-61
2023/03/14 07:55:07;;;;;;;5.70;2.30;;;;;;;6.05;42.81;100078.45;79315;1298;3013646;-63
2023/03/14 07:57:38;;;;;;;8.20;2.90;;;;;;;5.86;42.30;100081.09;77986;1300;3051091;-62
2023/03/14 08:00:07;;;;;;;4.70;2.40;;;;;;;5.86;42.50;100086.32;79289;1301;3013198;-62
2023/03/14 08:02:41;;;;;;;5.00;2.40;;;;;;;5.85;42.89;100085.14;78044;1301;3068678;-63
2023/03/14 08:05:08;;;;;;;5.10;2.40;;;;;;;5.82;43.00;100085.39;79176;1298;3018804;-63
2023/03/14 08:07:36;;;;;;;5.80;2.70;;;;;;;5.94;43.21;100079.47;79248;1298;3011531;-62
2023/03/14 08:10:09;;;;;;;6.70;3.00;;;;;;;6.00;43.41;100078.26;78009;1299;3054581;-63
2023/03/14 08:12:37;;;;;;;5.10;2.50;;;;;;;6.02;43.26;100071.59;79161;1301;3012173;-63
2023/03/14 08:15:04;;;;;;;4.30;2.00;;;;;;;6.22;43.62;100074.40;79334;1301;3011852;-62
2023/03/14 08:17:35;;;;;;;5.80;2.60;;;;;;;6.37;43.26;100069.93;78121;1301;3070515;-64
2023/03/14 08:20:06;;;;;;;6.00;2.60;;;;;;;6.29;43.10;100061.83;79205;1298;3018974;-62
2023/03/14 08:22:34;;;;;;;4.60;2.80;;;;;;;6.47;42.87;100058.45;78010;1298;3052691;-64
2023/03/14 08:25:00;;;;;;;5.10;3.30;;;;;;;6.53;42.95;100058.42;79317;1299;3020693;-64
2023/03/14 08:27:27;;;;;;;9.80;2.90;;;;;;;6.48;43.03;100055.09;79180;1300;3012833;-64
2023/03/14 08:29:56;;;;;;;8.90;3.50;;;;;;;6.43;42.98;100054.09;78117;1301;3051281;-62
2023/03/14 08:32:23;;;;;;;6.80;3.10;;;;;;;6.27;43.70;100049.73;79290;1297;3013339;-62
2023/03/14 08:34:50;;;;;;;6.00;3.10;;;;;;;6.32;43.94;100048.70;79166;1297;3012812;-62
2023/03/14 08:37:19;;;;;;;5.00;2.90;;;;;;;6.45;43.75;100048.40;78006;1300;3027923;-64
2023/03/14 08:39:45;;;;;;;6.80;3.20;;;;;;;6.43;43.46;100041.16;79212;1298;3011672;-62
2023/03/14 08:42:12;;;;;;;6.80;2.90;;;;;;;6.44;43.94;100035.23;79229;1298;3011464;-63
2023/03/14 08:44:41;;;;;;;6.30;2.80;;;;;;;6.46;44.80;100037.61;77996;1301;3051480;-64
2023/03/14 08:47:07;;;;;;;4.40;2.80;;;;;;;6.62;43.82;100035.63;79266;1297;3013934;-63
2023/03/14 08:49:39;;;;;;;4.10;2.70;;;;;;;6.80;44.01;100035.89;78755;1298;3011851;-63
2023/03/14 08:52:06;;;;;;;6.60;3.10;;;;;;;6.83;43.04;100033.50;79413;1298;3013497;-64
2023/03/14 08:54:38;;;;;;;5.80;2.50;;;;;;;6.96;42.62;100035.48;78715;1298;3011665;-61
2023/03/14 08:57:05;;;;;;;5.80;2.90;;;;;;;6.99;41.67;100038.50;79385;1299;3012807;-64
2023/03/14 08:59:31;;;;;;;7.50;3.20;;;;;;;6.79;42.23;100033.48;79242;1301;3012856;-65
2023/03/14 09:02:03;;;;;;;5.60;2.90;;;;;;;6.85;42.88;100036.06;78036;1301;3028446;-63
2023/03/14 09:04:30;;;;;;;5.50;2.80;;;;;;;6.75;43.37;100035.71;79182;1298;3011966;-62
2023/03/14 09:07:04;;;;;;;5.70;3.40;;;;;;;6.65;43.78;100028.77;78039;1300;3051243;-63
2023/03/14 09:09:31;;;;;;;5.40;3.20;;;;;;;6.81;43.02;100027.65;79186;1298;3013222;-62
2023/03/14 09:11:57;;;;;;;7.60;3.90;;;;;;;6.88;43.14;100024.13;79115;1298;3011407;-64
2023/03/14 09:14:26;;;;;;;5.90;3.30;;;;;;;7.06;42.27;100017.52;78055;1301;3051191;-64
2023/03/14 09:16:53;;;;;;;6.60;3.30;;;;;;;7.02;41.77;100023.24;79360;1301;3013571;-63
2023/03/14 09:19:20;;;;;;;4.60;2.70;;;;;;;7.18;42.33;100002.43;79329;1300;3011615;-64
2023/03/14 09:21:51;;;;;;;5.70;3.30;;;;;;;7.31;41.91;100005.61;78023;1301;3052664;-63
2023/03/14 09:24:17;;;;;;;6.10;3.50;;;;;;;7.43;42.15;99994.01;79395;1300;3013286;-64
2023/03/14 09:26:44;;;;;;;8.00;3.40;;;;;;;7.33;41.96;99994.04;79168;1301;3012621;-60
2023/03/14 09:29:12;;;;;;;6.80;3.20;;;;;;;7.27;42.16;99985.04;77963;1301;3029531;-63
2023/03/14 09:31:39;;;;;;;6.60;3.60;;;;;;;7.32;42.65;99978.55;79270;1300;3013308;-64
2023/03/14 09:34:06;;;;;;;6.50;3.30;;;;;;;7.45;42.29;99974.59;79279;1299;3011886;-61
2023/03/14 09:36:34;;;;;;;5.90;3.40;;;;;;;7.60;41.63;99975.02;78241;1301;3029565;-62
2023/03/14 09:39:01;;;;;;;5.60;3.20;;;;;;;7.78;41.86;99976.92;79289;1297;3018912;-62
2023/03/14 09:41:30;;;;;;;6.50;3.80;;;;;;;7.79;41.22;99966.91;79354;1299;3011755;-64
2023/03/14 09:44:21;;;;;;;5.70;3.70;;;;;;;7.91;41.29;99965.20;78009;1301;3050170;-65
2023/03/14 09:46:58;;;;;;;6.00;3.80;;;;;;;8.00;41.32;99962.06;78252;1300;3052222;-65
2023/03/14 09:49:29;;;;;;;7.80;3.60;;;;;;;7.75;42.25;99958.02;79233;1300;3011588;-64
2023/03/14 09:51:58;;;;;;;5.90;3.60;;;;;;;7.92;42.68;99952.30;78113;1298;3068501;-65
2023/03/14 09:54:45;;;;;;;6.00;3.50;;;;;;;7.89;42.76;99947.49;79293;1296;3013492;-64
2023/03/14 09:57:24;;;;;;;8.10;4.00;;;;;;;8.17;42.71;99942.30;78047;1298;3055493;-66
2023/03/14 09:59:58;;;;;;;10.60;4.70;;;;;;;8.41;42.45;99935.54;78144;1300;3051156;-67
2023/03/14 10:02:31;;;;;;;12.70;5.20;;;;;;;8.66;41.06;99924.12;79206;1297;3013356;-66
2023/03/14 10:05:00;;;;;;;9.70;4.60;;;;;;;8.89;40.55;99923.97;77795;1303;3050967;-64
2023/03/14 10:07:28;;;;;;;9.00;4.60;;;;;;;8.86;41.48;99916.77;79096;1304;3021374;-66
2023/03/14 10:09:56;;;;;;;10.40;4.70;;;;;;;9.02;41.14;99916.71;79269;1296;3011916;-63
2023/03/14 10:12:33;;;;;;;11.30;3.90;;;;;;;9.09;39.21;99914.12;78072;1301;3052559;-64
2023/03/14 10:15:09;;;;;;;10.80;4.10;;;;;;;9.23;38.74;99908.20;78193;1301;3058143;-65
2023/03/14 10:17:47;;;;;;;9.10;4.30;;;;;;;9.32;38.99;99901.31;78078;1301;3049289;-65
2023/03/14 10:20:27;;;;;;;7.60;3.90;;;;;;;9.41;38.57;99895.14;78072;1298;3053400;-63
2023/03/14 10:22:55;;;;;;;5.90;3.30;;;;;;;9.25;39.42;99885.21;78114;1301;3050178;-64
2023/03/14 10:25:33;;;;;;;6.80;3.60;;;;;;;9.20;39.35;99877.77;79228;1301;3013797;-64
2023/03/14 10:28:03;;;;;;;5.50;3.10;;;;;;;9.07;38.75;99871.54;77957;1300;3069153;-64
2023/03/14 10:30:48;;;;;;;7.30;3.30;;;;;;;9.04;39.08;99870.86;79265;1298;3013812;-63
2023/03/14 10:33:17;;;;;;;7.80;3.50;;;;;;;9.06;40.31;99861.27;77990;1301;3051312;-65
2023/03/14 10:35:43;;;;;;;6.10;3.80;;;;;;;9.37;40.66;99860.15;79335;1298;3021395;-65
2023/03/14 10:38:13;;;;;;;9.90;5.00;;;;;;;9.66;40.06;99857.66;79202;1298;3013154;-65
2023/03/14 10:40:49;;;;;;;5.40;3.40;;;;;;;9.83;39.06;99860.13;78027;1300;3053581;-65
2023/03/14 10:43:26;;;;;;;8.90;4.30;;;;;;;9.99;38.82;99845.48;78740;1301;3012096;-65
2023/03/14 10:45:57;;;;;;;7.10;4.00;;;;;;;10.16;38.90;99835.48;77891;1298;3069139;-64
2023/03/14 10:48:35;;;;;;;6.90;3.70;;;;;;;10.32;38.74;99837.64;79353;1298;3011727;-65
2023/03/14 10:51:15;;;;;;;8.20;3.50;;;;;;;10.28;38.86;99840.64;78021;1296;3056656;-63
2023/03/14 10:53:45;;;;;;;9.50;4.30;;;;;;;10.36;38.97;99842.51;77908;1300;3050855;-65
2023/03/14 10:56:19;;;;;;;7.10;4.20;;;;;;;10.28;38.76;99837.50;79349;1298;3012926;-64
2023/03/14 10:58:49;;;;;;;7.80;4.00;;;;;;;10.28;37.87;99822.77;77966;1301;3050708;-63
2023/03/14 11:01:41;;;;;;;9.20;4.50;;;;;;;10.44;37.42;99826.54;79469;1296;3013012;-64
2023/03/14 11:04:31;;;;;;;10.10;3.80;;;;;;;10.46;36.92;99833.20;78044;1301;3053555;-63
2023/03/14 11:07:22;;;;;;;5.80;3.70;;;;;;;10.28;36.83;99824.20;78317;1298;3070081;-64
2023/03/14 11:09:53;;;;;;;7.10;3.90;;;;;;;10.11;37.86;99817.03;77859;1298;3052340;-66
2023/03/14 11:13:07;;;;;;;6.80;3.70;;;;;;;10.43;38.27;99818.54;79257;1299;3012693;-66
2023/03/14 11:16:16;;;;;;;7.50;4.10;;;;;;;10.77;37.82;99808.59;77570;1304;3049560;-65
2023/03/14 11:18:59;;;;;;;7.10;3.60;;;;;;;10.85;37.77;99802.73;77837;1298;3054653;-65
2023/03/14 11:21:55;;;;;;;7.80;4.20;;;;;;;10.90;38.09;99799.63;78009;1300;3051945;-65
2023/03/14 11:24:48;;;;;;;6.30;3.70;;;;;;;10.97;37.94;99790.14;78034;1301;3053205;-63
2023/03/14 11:27:23;;;;;;;;;;;;;;;11.27;37.92;99784.56;78025;1301;3053946;-64
2023/03/14 11:30:18;;;;;;;6.90;3.40;;;;;;;11.45;36.57;99774.60;78856;1296;3011737;-64
2023/03/14 11:33:09;;;;;;;9.10;3.80;;;;;;;11.40;36.31;99771.65;78169;1297;3068773;-65
2023/03/14 11:35:51;;;;;;;5.60;3.40;;;;;;;11.51;36.76;99771.55;78133;1296;3052795;-65
2023/03/14 11:38:24;;;;;;;11.70;3.80;;;;;;;11.47;36.55;99771.62;78030;1301;3058003;-65
2023/03/14 11:40:50;;;;;;;6.60;3.90;;;;;;;11.09;36.94;99771.90;79230;1298;3011914;-64
2023/03/14 11:43:27;;;;;;;10.70;3.70;;;;;;;11.15;36.87;99766.13;77914;1298;3054152;-66
2023/03/14 11:46:08;;;;;;;8.00;3.40;;;;;;;11.39;36.88;99762.80;77973;1298;3051326;-64
2023/03/14 11:48:39;;;;;;;6.30;3.40;;;;;;;11.62;37.05;99753.73;77997;1301;3052715;-65